sensor_id;sensor_type;location;lat;lon;timestamp;P1;durP1;ratioP1;P2;durP2;ratioP2
2674;SDS011;1347;42.122;24.746;2023-06-14T00:02:07;9.47;;;8.47;;
2674;SDS011;1347;42.122;24.746;2023-06-14T00:04:34;10.07;;;9.07;;
2674;SDS011;1347;42.122;24.746;2023-06-14T00:07:02;9.87;;;9.07;;
2674;SDS011;1347;42.122;24.746;2023-06-14T00:09:33;9.60;;;8.80;;
2674;SDS011;1347;42.122;24.746;2023-06-14T00:12:00;9.10;;;8.30;;
2674;SDS011;1347;42.122;24.746;2023-06-14T00:14:27;10.17;;;9.27;;
2674;SDS011;1347;42.122;24.746;2023-06-14T00:16:53;9.60;;;8.77;;
2674;SDS011;1347;42.122;24.746;2023-06-14T00:19:25;12.03;;;8.90;;
2674;SDS011;1347;42.122;24.746;2023-06-14T00:21:51;10.03;;;9.13;;
2674;SDS011;1347;42.122;24.746;2023-06-14T00:24:19;9.50;;;8.60;;
2674;SDS011;1347;42.122;24.746;2023-06-14T00:26:45;9.53;;;8.73;;
2674;SDS011;1347;42.122;24.746;2023-06-14T00:29:13;10.00;;;8.97;;
2674;SDS011;1347;42.122;24.746;2023-06-14T00:31:40;8.87;;;8.07;;
2674;SDS011;1347;42.122;24.746;2023-06-14T00:34:07;11.57;;;9.90;;
2674;SDS011;1347;42.122;24.746;2023-06-14T00:36:36;11.30;;;10.30;;
2674;SDS011;1347;42.122;24.746;2023-06-14T00:39:02;10.67;;;9.63;;
2674;SDS011;1347;42.122;24.746;2023-06-14T00:41:29;14.53;;;10.73;;
2674;SDS011;1347;42.122;24.746;2023-06-14T00:43:56;11.60;;;9.93;;
2674;SDS011;1347;42.122;24.746;2023-06-14T00:46:25;11.10;;;10.10;;
2674;SDS011;1347;42.122;24.746;2023-06-14T00:48:51;11.60;;;10.60;;
2674;SDS011;1347;42.122;24.746;2023-06-14T00:51:19;10.80;;;9.67;;
2674;SDS011;1347;42.122;24.746;2023-06-14T00:53:48;11.50;;;10.30;;
2674;SDS011;1347;42.122;24.746;2023-06-14T00:56:15;10.83;;;9.83;;
2674;SDS011;1347;42.122;24.746;2023-06-14T00:58:44;9.93;;;9.00;;
2674;SDS011;1347;42.122;24.746;2023-06-14T01:01:11;11.10;;;10.17;;
2674;SDS011;1347;42.122;24.746;2023-06-14T01:03:39;11.77;;;10.50;;
2674;SDS011;1347;42.122;24.746;2023-06-14T01:06:14;11.13;;;10.13;;
2674;SDS011;1347;42.122;24.746;2023-06-14T01:09:03;12.13;;;11.00;;
2674;SDS011;1347;42.122;24.746;2023-06-14T01:11:38;13.70;;;10.80;;
2674;SDS011;1347;42.122;24.746;2023-06-14T01:14:14;10.57;;;9.67;;
2674;SDS011;1347;42.122;24.746;2023-06-14T01:16:43;10.50;;;9.50;;
2674;SDS011;1347;42.122;24.746;2023-06-14T01:19:11;10.93;;;9.83;;
2674;SDS011;1347;42.122;24.746;2023-06-14T01:21:39;10.47;;;9.53;;
2674;SDS011;1347;42.122;24.746;2023-06-14T01:24:08;12.10;;;10.90;;
2674;SDS011;1347;42.122;24.746;2023-06-14T01:26:36;10.90;;;9.90;;
2674;SDS011;1347;42.122;24.746;2023-06-14T01:29:10;10.67;;;9.80;;
2674;SDS011;1347;42.122;24.746;2023-06-14T01:31:42;11.50;;;10.43;;
2674;SDS011;1347;42.122;24.746;2023-06-14T01:34:10;11.47;;;10.47;;
2674;SDS011;1347;42.122;24.746;2023-06-14T01:36:37;11.40;;;10.30;;
2674;SDS011;1347;42.122;24.746;2023-06-14T01:39:08;11.30;;;10.20;;
2674;SDS011;1347;42.122;24.746;2023-06-14T01:41:38;11.37;;;10.47;;
2674;SDS011;1347;42.122;24.746;2023-06-14T01:44:05;13.33;;;12.03;;
2674;SDS011;1347;42.122;24.746;2023-06-14T01:46:33;11.70;;;10.50;;
2674;SDS011;1347;42.122;24.746;2023-06-14T01:48:59;11.30;;;9.47;;
2674;SDS011;1347;42.122;24.746;2023-06-14T01:51:27;11.00;;;10.00;;
2674;SDS011;1347;42.122;24.746;2023-06-14T01:53:54;11.93;;;10.90;;
2674;SDS011;1347;42.122;24.746;2023-06-14T01:56:23;13.10;;;11.93;;
2674;SDS011;1347;42.122;24.746;2023-06-14T01:58:51;11.20;;;10.20;;
2674;SDS011;1347;42.122;24.746;2023-06-14T02:01:21;12.50;;;11.30;;
2674;SDS011;1347;42.122;24.746;2023-06-14T02:03:50;14.80;;;11.17;;
2674;SDS011;1347;42.122;24.746;2023-06-14T02:06:16;12.17;;;11.00;;
2674;SDS011;1347;42.122;24.746;2023-06-14T02:08:43;12.07;;;10.97;;
2674;SDS011;1347;42.122;24.746;2023-06-14T02:11:10;13.10;;;12.00;;
2674;SDS011;1347;42.122;24.746;2023-06-14T02:13:38;12.43;;;11.23;;
2674;SDS011;1347;42.122;24.746;2023-06-14T02:16:05;12.17;;;11.17;;
2674;SDS011;1347;42.122;24.746;2023-06-14T02:18:32;13.33;;;12.13;;
2674;SDS011;1347;42.122;24.746;2023-06-14T02:20:59;13.53;;;12.43;;
2674;SDS011;1347;42.122;24.746;2023-06-14T02:23:26;11.90;;;10.90;;
2674;SDS011;1347;42.122;24.746;2023-06-14T02:25:53;13.17;;;11.77;;
2674;SDS011;1347;42.122;24.746;2023-06-14T02:28:20;13.20;;;12.07;;
2674;SDS011;1347;42.122;24.746;2023-06-14T02:30:48;12.10;;;11.10;;
2674;SDS011;1347;42.122;24.746;2023-06-14T02:33:16;14.30;;;12.90;;
2674;SDS011;1347;42.122;24.746;2023-06-14T02:35:42;12.60;;;11.50;;
2674;SDS011;1347;42.122;24.746;2023-06-14T02:38:09;11.07;;;9.80;;
2674;SDS011;1347;42.122;24.746;2023-06-14T02:40:36;11.57;;;10.57;;
2674;SDS011;1347;42.122;24.746;2023-06-14T02:43:03;11.30;;;10.13;;
2674;SDS011;1347;42.122;24.746;2023-06-14T02:45:30;14.40;;;10.80;;
2674;SDS011;1347;42.122;24.746;2023-06-14T02:47:58;11.27;;;10.17;;
2674;SDS011;1347;42.122;24.746;2023-06-14T02:50:25;12.83;;;11.57;;
2674;SDS011;1347;42.122;24.746;2023-06-14T02:52:53;12.23;;;11.10;;
2674;SDS011;1347;42.122;24.746;2023-06-14T02:55:21;15.13;;;10.77;;
2674;SDS011;1347;42.122;24.746;2023-06-14T02:57:48;12.10;;;11.10;;
2674;SDS011;1347;42.122;24.746;2023-06-14T03:00:15;14.33;;;11.90;;
2674;SDS011;1347;42.122;24.746;2023-06-14T03:02:42;12.07;;;10.80;;
2674;SDS011;1347;42.122;24.746;2023-06-14T03:05:11;13.90;;;11.50;;
2674;SDS011;1347;42.122;24.746;2023-06-14T03:07:38;12.70;;;11.40;;
2674;SDS011;1347;42.122;24.746;2023-06-14T03:10:07;12.30;;;11.03;;
2674;SDS011;1347;42.122;24.746;2023-06-14T03:12:34;12.60;;;11.30;;
2674;SDS011;1347;42.122;24.746;2023-06-14T03:15:02;13.47;;;10.87;;
2674;SDS011;1347;42.122;24.746;2023-06-14T03:17:29;12.17;;;10.93;;
2674;SDS011;1347;42.122;24.746;2023-06-14T03:19:58;12.53;;;11.33;;
2674;SDS011;1347;42.122;24.746;2023-06-14T03:22:27;13.67;;;12.33;;
2674;SDS011;1347;42.122;24.746;2023-06-14T03:24:54;12.57;;;11.27;;
2674;SDS011;1347;42.122;24.746;2023-06-14T03:27:21;15.10;;;12.63;;
2674;SDS011;1347;42.122;24.746;2023-06-14T03:29:48;16.47;;;14.83;;
2674;SDS011;1347;42.122;24.746;2023-06-14T03:32:15;14.83;;;13.43;;
2674;SDS011;1347;42.122;24.746;2023-06-14T03:34:42;11.97;;;10.87;;
2674;SDS011;1347;42.122;24.746;2023-06-14T03:37:10;10.67;;;9.53;;
2674;SDS011;1347;42.122;24.746;2023-06-14T03:39:38;11.47;;;10.43;;
2674;SDS011;1347;42.122;24.746;2023-06-14T03:42:11;11.23;;;10.23;;
2674;SDS011;1347;42.122;24.746;2023-06-14T03:44:38;12.43;;;10.00;;
2674;SDS011;1347;42.122;24.746;2023-06-14T03:47:06;10.77;;;9.80;;
2674;SDS011;1347;42.122;24.746;2023-06-14T03:49:33;13.03;;;10.17;;
2674;SDS011;1347;42.122;24.746;2023-06-14T03:52:00;17.97;;;12.00;;
2674;SDS011;1347;42.122;24.746;2023-06-14T03:54:27;11.93;;;10.83;;
2674;SDS011;1347;42.122;24.746;2023-06-14T03:56:58;12.87;;;11.50;;
2674;SDS011;1347;42.122;24.746;2023-06-14T03:59:25;12.40;;;11.10;;
2674;SDS011;1347;42.122;24.746;2023-06-14T04:01:53;11.90;;;10.67;;
2674;SDS011;1347;42.122;24.746;2023-06-14T04:04:20;15.00;;;13.40;;
2674;SDS011;1347;42.122;24.746;2023-06-14T04:06:53;14.00;;;12.50;;
2674;SDS011;1347;42.122;24.746;2023-06-14T04:09:24;19.27;;;12.57;;
2674;SDS011;1347;42.122;24.746;2023-06-14T04:11:58;14.23;;;12.00;;
2674;SDS011;1347;42.122;24.746;2023-06-14T04:14:37;11.87;;;10.93;;
2674;SDS011;1347;42.122;24.746;2023-06-14T04:17:06;14.70;;;13.40;;
2674;SDS011;1347;42.122;24.746;2023-06-14T04:19:36;14.03;;;12.37;;
2674;SDS011;1347;42.122;24.746;2023-06-14T04:26:05;15.13;;;13.80;;
2674;SDS011;1347;42.122;24.746;2023-06-14T04:48:52;14.53;;;13.03;;
2674;SDS011;1347;42.122;24.746;2023-06-14T04:51:19;13.83;;;12.27;;
2674;SDS011;1347;42.122;24.746;2023-06-14T04:53:54;13.20;;;12.00;;
2674;SDS011;1347;42.122;24.746;2023-06-14T04:56:22;16.53;;;12.53;;
2674;SDS011;1347;42.122;24.746;2023-06-14T04:58:50;20.80;;;13.40;;
2674;SDS011;1347;42.122;24.746;2023-06-14T05:01:18;15.33;;;13.83;;
2674;SDS011;1347;42.122;24.746;2023-06-14T05:03:45;16.73;;;15.00;;
2674;SDS011;1347;42.122;24.746;2023-06-14T05:06:15;16.80;;;13.20;;
2674;SDS011;1347;42.122;24.746;2023-06-14T05:08:43;16.73;;;15.10;;
2674;SDS011;1347;42.122;24.746;2023-06-14T05:11:09;20.03;;;14.97;;
2674;SDS011;1347;42.122;24.746;2023-06-14T05:13:36;17.70;;;16.10;;
2674;SDS011;1347;42.122;24.746;2023-06-14T05:16:05;18.07;;;16.20;;
2674;SDS011;1347;42.122;24.746;2023-06-14T05:18:31;19.63;;;16.83;;
2674;SDS011;1347;42.122;24.746;2023-06-14T05:21:00;22.77;;;19.30;;
2674;SDS011;1347;42.122;24.746;2023-06-14T05:23:28;19.90;;;17.90;;
2674;SDS011;1347;42.122;24.746;2023-06-14T05:25:55;19.17;;;17.37;;
2674;SDS011;1347;42.122;24.746;2023-06-14T05:28:22;18.63;;;16.20;;
2674;SDS011;1347;42.122;24.746;2023-06-14T05:30:49;20.17;;;18.00;;
2674;SDS011;1347;42.122;24.746;2023-06-14T05:33:17;51.20;;;21.17;;
2674;SDS011;1347;42.122;24.746;2023-06-14T05:35:44;18.53;;;16.63;;
2674;SDS011;1347;42.122;24.746;2023-06-14T05:38:12;19.00;;;16.83;;
2674;SDS011;1347;42.122;24.746;2023-06-14T05:40:40;19.47;;;17.67;;
2674;SDS011;1347;42.122;24.746;2023-06-14T05:43:07;17.67;;;16.00;;
2674;SDS011;1347;42.122;24.746;2023-06-14T05:45:34;17.80;;;16.00;;
2674;SDS011;1347;42.122;24.746;2023-06-14T05:48:00;18.50;;;16.73;;
2674;SDS011;1347;42.122;24.746;2023-06-14T05:50:27;19.03;;;16.00;;
2674;SDS011;1347;42.122;24.746;2023-06-14T05:52:54;18.97;;;15.40;;
2674;SDS011;1347;42.122;24.746;2023-06-14T05:55:21;26.87;;;16.63;;
2674;SDS011;1347;42.122;24.746;2023-06-14T05:57:49;19.23;;;17.37;;
2674;SDS011;1347;42.122;24.746;2023-06-14T06:00:17;20.20;;;16.90;;
2674;SDS011;1347;42.122;24.746;2023-06-14T06:02:45;23.90;;;21.60;;
2674;SDS011;1347;42.122;24.746;2023-06-14T06:05:12;17.83;;;16.23;;
2674;SDS011;1347;42.122;24.746;2023-06-14T06:07:41;20.03;;;17.90;;
2674;SDS011;1347;42.122;24.746;2023-06-14T06:10:09;19.63;;;17.50;;
2674;SDS011;1347;42.122;24.746;2023-06-14T06:12:36;19.97;;;18.07;;
2674;SDS011;1347;42.122;24.746;2023-06-14T06:15:05;18.40;;;16.67;;
2674;SDS011;1347;42.122;24.746;2023-06-14T06:17:33;25.00;;;17.47;;
2674;SDS011;1347;42.122;24.746;2023-06-14T06:20:00;18.90;;;16.67;;
2674;SDS011;1347;42.122;24.746;2023-06-14T06:22:27;19.53;;;17.23;;
2674;SDS011;1347;42.122;24.746;2023-06-14T06:24:54;18.43;;;16.60;;
2674;SDS011;1347;42.122;24.746;2023-06-14T06:27:21;19.80;;;17.40;;
2674;SDS011;1347;42.122;24.746;2023-06-14T06:29:48;17.00;;;15.50;;
2674;SDS011;1347;42.122;24.746;2023-06-14T06:32:19;17.37;;;15.57;;
2674;SDS011;1347;42.122;24.746;2023-06-14T06:34:46;17.03;;;15.53;;
2674;SDS011;1347;42.122;24.746;2023-06-14T06:37:13;18.20;;;16.40;;
2674;SDS011;1347;42.122;24.746;2023-06-14T06:39:40;18.00;;;16.40;;
2674;SDS011;1347;42.122;24.746;2023-06-14T06:42:07;17.67;;;15.80;;
2674;SDS011;1347;42.122;24.746;2023-06-14T06:44:35;16.80;;;15.00;;
2674;SDS011;1347;42.122;24.746;2023-06-14T06:47:05;17.03;;;15.33;;
2674;SDS011;1347;42.122;24.746;2023-06-14T06:49:33;14.27;;;13.00;;
2674;SDS011;1347;42.122;24.746;2023-06-14T06:52:04;15.17;;;13.90;;
2674;SDS011;1347;42.122;24.746;2023-06-14T06:54:32;15.60;;;14.10;;
2674;SDS011;1347;42.122;24.746;2023-06-14T06:56:59;20.87;;;15.17;;
2674;SDS011;1347;42.122;24.746;2023-06-14T06:59:27;14.90;;;13.57;;
2674;SDS011;1347;42.122;24.746;2023-06-14T07:01:54;17.40;;;15.53;;
2674;SDS011;1347;42.122;24.746;2023-06-14T07:04:21;16.97;;;15.37;;
2674;SDS011;1347;42.122;24.746;2023-06-14T07:06:49;17.80;;;15.20;;
2674;SDS011;1347;42.122;24.746;2023-06-14T07:09:16;16.63;;;15.07;;
2674;SDS011;1347;42.122;24.746;2023-06-14T07:11:45;17.77;;;16.20;;
2674;SDS011;1347;42.122;24.746;2023-06-14T07:14:13;17.53;;;16.07;;
2674;SDS011;1347;42.122;24.746;2023-06-14T07:16:40;16.83;;;15.33;;
2674;SDS011;1347;42.122;24.746;2023-06-14T07:19:08;15.90;;;14.40;;
2674;SDS011;1347;42.122;24.746;2023-06-14T07:21:35;15.40;;;14.07;;
2674;SDS011;1347;42.122;24.746;2023-06-14T07:24:05;17.40;;;15.90;;
2674;SDS011;1347;42.122;24.746;2023-06-14T07:26:33;16.73;;;15.30;;
2674;SDS011;1347;42.122;24.746;2023-06-14T07:29:00;15.73;;;14.40;;
2674;SDS011;1347;42.122;24.746;2023-06-14T07:31:27;16.17;;;14.47;;
2674;SDS011;1347;42.122;24.746;2023-06-14T07:33:54;15.33;;;13.97;;
2674;SDS011;1347;42.122;24.746;2023-06-14T07:36:23;15.33;;;13.57;;
2674;SDS011;1347;42.122;24.746;2023-06-14T07:38:50;14.23;;;13.03;;
2674;SDS011;1347;42.122;24.746;2023-06-14T07:41:20;16.83;;;13.63;;
2674;SDS011;1347;42.122;24.746;2023-06-14T07:43:47;14.93;;;13.60;;
2674;SDS011;1347;42.122;24.746;2023-06-14T07:46:14;17.27;;;15.87;;
2674;SDS011;1347;42.122;24.746;2023-06-14T07:48:41;16.17;;;14.67;;
2674;SDS011;1347;42.122;24.746;2023-06-14T07:51:08;16.60;;;15.10;;
2674;SDS011;1347;42.122;24.746;2023-06-14T07:53:35;21.00;;;18.17;;
2674;SDS011;1347;42.122;24.746;2023-06-14T07:56:02;19.50;;;17.47;;
2674;SDS011;1347;42.122;24.746;2023-06-14T07:58:32;21.73;;;17.17;;
2674;SDS011;1347;42.122;24.746;2023-06-14T08:00:58;15.97;;;14.53;;
2674;SDS011;1347;42.122;24.746;2023-06-14T08:03:28;18.30;;;16.20;;
2674;SDS011;1347;42.122;24.746;2023-06-14T08:05:55;20.23;;;18.03;;
2674;SDS011;1347;42.122;24.746;2023-06-14T08:08:22;18.23;;;16.47;;
2674;SDS011;1347;42.122;24.746;2023-06-14T08:10:49;18.83;;;17.00;;
2674;SDS011;1347;42.122;24.746;2023-06-14T08:13:16;18.37;;;16.77;;
2674;SDS011;1347;42.122;24.746;2023-06-14T08:15:45;17.83;;;16.40;;
2674;SDS011;1347;42.122;24.746;2023-06-14T08:18:12;19.17;;;17.17;;
2674;SDS011;1347;42.122;24.746;2023-06-14T08:20:39;16.83;;;15.53;;
2674;SDS011;1347;42.122;24.746;2023-06-14T08:23:05;17.50;;;16.10;;
2674;SDS011;1347;42.122;24.746;2023-06-14T08:25:34;16.83;;;15.23;;
2674;SDS011;1347;42.122;24.746;2023-06-14T08:28:01;17.23;;;15.73;;
2674;SDS011;1347;42.122;24.746;2023-06-14T08:30:28;18.23;;;16.80;;
2674;SDS011;1347;42.122;24.746;2023-06-14T08:32:56;16.87;;;15.47;;
2674;SDS011;1347;42.122;24.746;2023-06-14T08:35:23;19.67;;;17.90;;
2674;SDS011;1347;42.122;24.746;2023-06-14T08:37:50;17.33;;;15.70;;
2674;SDS011;1347;42.122;24.746;2023-06-14T08:40:18;18.17;;;16.57;;
2674;SDS011;1347;42.122;24.746;2023-06-14T08:42:51;18.43;;;16.63;;
2674;SDS011;1347;42.122;24.746;2023-06-14T08:45:19;16.63;;;15.07;;
2674;SDS011;1347;42.122;24.746;2023-06-14T08:47:47;17.90;;;15.63;;
2674;SDS011;1347;42.122;24.746;2023-06-14T08:50:20;17.20;;;15.23;;
2674;SDS011;1347;42.122;24.746;2023-06-14T08:52:50;16.83;;;15.57;;
2674;SDS011;1347;42.122;24.746;2023-06-14T08:55:22;16.53;;;15.20;;
2674;SDS011;1347;42.122;24.746;2023-06-14T08:57:52;16.17;;;14.83;;
2674;SDS011;1347;42.122;24.746;2023-06-14T09:00:21;18.77;;;17.27;;
2674;SDS011;1347;42.122;24.746;2023-06-14T09:02:49;18.47;;;16.73;;
2674;SDS011;1347;42.122;24.746;2023-06-14T09:05:22;17.60;;;16.00;;
2674;SDS011;1347;42.122;24.746;2023-06-14T09:07:49;19.33;;;17.40;;
2674;SDS011;1347;42.122;24.746;2023-06-14T09:10:17;16.53;;;15.20;;
2674;SDS011;1347;42.122;24.746;2023-06-14T09:12:45;17.33;;;15.83;;
2674;SDS011;1347;42.122;24.746;2023-06-14T09:15:12;15.17;;;13.77;;
2674;SDS011;1347;42.122;24.746;2023-06-14T09:17:39;17.40;;;15.80;;
2674;SDS011;1347;42.122;24.746;2023-06-14T09:20:07;17.73;;;16.10;;
2674;SDS011;1347;42.122;24.746;2023-06-14T09:22:37;17.00;;;15.60;;
2674;SDS011;1347;42.122;24.746;2023-06-14T09:25:04;16.33;;;14.63;;
2674;SDS011;1347;42.122;24.746;2023-06-14T09:27:32;16.97;;;15.77;;
2674;SDS011;1347;42.122;24.746;2023-06-14T09:30:01;17.00;;;15.40;;
2674;SDS011;1347;42.122;24.746;2023-06-14T09:32:28;16.57;;;15.13;;
2674;SDS011;1347;42.122;24.746;2023-06-14T09:34:55;14.53;;;13.33;;
2674;SDS011;1347;42.122;24.746;2023-06-14T09:37:27;17.43;;;15.87;;
2674;SDS011;1347;42.122;24.746;2023-06-14T09:39:57;23.73;;;15.70;;
2674;SDS011;1347;42.122;24.746;2023-06-14T09:42:24;20.40;;;17.00;;
2674;SDS011;1347;42.122;24.746;2023-06-14T09:44:53;16.40;;;14.93;;
2674;SDS011;1347;42.122;24.746;2023-06-14T09:47:21;17.40;;;15.70;;
2674;SDS011;1347;42.122;24.746;2023-06-14T09:49:49;17.93;;;16.20;;
2674;SDS011;1347;42.122;24.746;2023-06-14T09:52:17;17.67;;;15.87;;
2674;SDS011;1347;42.122;24.746;2023-06-14T09:54:46;17.93;;;16.43;;
2674;SDS011;1347;42.122;24.746;2023-06-14T09:57:15;18.43;;;16.63;;
2674;SDS011;1347;42.122;24.746;2023-06-14T09:59:46;20.33;;;17.17;;
2674;SDS011;1347;42.122;24.746;2023-06-14T10:02:18;21.00;;;18.83;;
2674;SDS011;1347;42.122;24.746;2023-06-14T10:04:53;22.20;;;20.20;;
2674;SDS011;1347;42.122;24.746;2023-06-14T10:07:26;23.13;;;21.13;;
2674;SDS011;1347;42.122;24.746;2023-06-14T10:09:56;26.73;;;24.30;;
2674;SDS011;1347;42.122;24.746;2023-06-14T10:12:25;26.07;;;24.00;;
2674;SDS011;1347;42.122;24.746;2023-06-14T10:14:52;26.73;;;24.43;;
2674;SDS011;1347;42.122;24.746;2023-06-14T10:17:26;26.37;;;24.07;;
2674;SDS011;1347;42.122;24.746;2023-06-14T10:20:03;23.30;;;21.30;;
2674;SDS011;1347;42.122;24.746;2023-06-14T10:22:42;21.00;;;19.20;;
2674;SDS011;1347;42.122;24.746;2023-06-14T10:25:25;22.73;;;19.90;;
2674;SDS011;1347;42.122;24.746;2023-06-14T10:27:54;20.43;;;18.53;;
2674;SDS011;1347;42.122;24.746;2023-06-14T10:30:29;19.47;;;17.83;;
2674;SDS011;1347;42.122;24.746;2023-06-14T10:33:05;18.57;;;17.07;;
2674;SDS011;1347;42.122;24.746;2023-06-14T10:35:32;19.50;;;17.53;;
2674;SDS011;1347;42.122;24.746;2023-06-14T10:38:08;19.20;;;17.40;;
2674;SDS011;1347;42.122;24.746;2023-06-14T10:40:36;20.80;;;18.80;;
2674;SDS011;1347;42.122;24.746;2023-06-14T10:48:40;20.07;;;18.10;;
2674;SDS011;1347;42.122;24.746;2023-06-14T10:51:10;18.23;;;16.73;;
2674;SDS011;1347;42.122;24.746;2023-06-14T10:53:45;18.90;;;17.20;;
2674;SDS011;1347;42.122;24.746;2023-06-14T10:56:22;18.67;;;17.07;;
2674;SDS011;1347;42.122;24.746;2023-06-14T10:58:52;17.00;;;15.47;;
2674;SDS011;1347;42.122;24.746;2023-06-14T11:01:23;17.07;;;15.57;;
2674;SDS011;1347;42.122;24.746;2023-06-14T11:04:06;17.40;;;16.10;;
2674;SDS011;1347;42.122;24.746;2023-06-14T11:06:41;15.43;;;14.23;;
2674;SDS011;1347;42.122;24.746;2023-06-14T11:12:17;15.73;;;14.30;;
2674;SDS011;1347;42.122;24.746;2023-06-14T11:14:48;15.63;;;14.20;;
2674;SDS011;1347;42.122;24.746;2023-06-14T11:17:15;15.50;;;14.17;;
2674;SDS011;1347;42.122;24.746;2023-06-14T11:19:42;16.97;;;15.60;;
2674;SDS011;1347;42.122;24.746;2023-06-14T11:22:10;18.33;;;16.83;;
2674;SDS011;1347;42.122;24.746;2023-06-14T11:24:37;16.87;;;15.43;;
2674;SDS011;1347;42.122;24.746;2023-06-14T11:27:04;17.10;;;15.80;;
2674;SDS011;1347;42.122;24.746;2023-06-14T11:29:31;18.40;;;17.00;;
2674;SDS011;1347;42.122;24.746;2023-06-14T11:32:00;18.17;;;16.57;;
2674;SDS011;1347;42.122;24.746;2023-06-14T11:34:26;18.03;;;16.50;;
2674;SDS011;1347;42.122;24.746;2023-06-14T11:36:53;18.20;;;16.80;;
2674;SDS011;1347;42.122;24.746;2023-06-14T11:39:23;17.40;;;16.17;;
2674;SDS011;1347;42.122;24.746;2023-06-14T11:41:51;18.83;;;17.23;;
2674;SDS011;1347;42.122;24.746;2023-06-14T11:44:18;18.13;;;16.63;;
2674;SDS011;1347;42.122;24.746;2023-06-14T11:46:45;19.07;;;17.63;;
2674;SDS011;1347;42.122;24.746;2023-06-14T11:49:13;19.57;;;18.07;;
2674;SDS011;1347;42.122;24.746;2023-06-14T11:51:40;18.93;;;17.53;;
2674;SDS011;1347;42.122;24.746;2023-06-14T11:54:10;17.40;;;16.10;;
2674;SDS011;1347;42.122;24.746;2023-06-14T11:56:37;19.43;;;17.90;;
2674;SDS011;1347;42.122;24.746;2023-06-14T11:59:04;18.80;;;17.30;;
2674;SDS011;1347;42.122;24.746;2023-06-14T12:01:35;20.00;;;18.30;;
2674;SDS011;1347;42.122;24.746;2023-06-14T12:04:03;19.23;;;17.63;;
2674;SDS011;1347;42.122;24.746;2023-06-14T12:06:31;19.20;;;17.60;;
2674;SDS011;1347;42.122;24.746;2023-06-14T12:09:03;18.57;;;17.17;;
2674;SDS011;1347;42.122;24.746;2023-06-14T12:11:32;19.23;;;17.50;;
2674;SDS011;1347;42.122;24.746;2023-06-14T12:14:00;19.80;;;17.87;;
2674;SDS011;1347;42.122;24.746;2023-06-14T12:16:30;19.87;;;17.97;;
2674;SDS011;1347;42.122;24.746;2023-06-14T12:19:00;18.40;;;16.90;;
2674;SDS011;1347;42.122;24.746;2023-06-14T12:21:28;21.43;;;19.17;;
2674;SDS011;1347;42.122;24.746;2023-06-14T12:23:56;17.97;;;16.40;;
2674;SDS011;1347;42.122;24.746;2023-06-14T12:26:23;18.63;;;17.03;;
2674;SDS011;1347;42.122;24.746;2023-06-14T12:28:52;20.03;;;18.60;;
2674;SDS011;1347;42.122;24.746;2023-06-14T12:31:18;19.70;;;17.93;;
2674;SDS011;1347;42.122;24.746;2023-06-14T12:33:46;18.20;;;16.60;;
2674;SDS011;1347;42.122;24.746;2023-06-14T12:36:14;19.57;;;17.73;;
2674;SDS011;1347;42.122;24.746;2023-06-14T12:38:41;16.47;;;15.23;;
2674;SDS011;1347;42.122;24.746;2023-06-14T12:41:10;18.10;;;16.70;;
2674;SDS011;1347;42.122;24.746;2023-06-14T12:43:38;19.63;;;18.00;;
2674;SDS011;1347;42.122;24.746;2023-06-14T12:46:05;18.30;;;16.93;;
2674;SDS011;1347;42.122;24.746;2023-06-14T12:48:32;17.70;;;16.00;;
2674;SDS011;1347;42.122;24.746;2023-06-14T12:50:59;17.37;;;16.10;;
2674;SDS011;1347;42.122;24.746;2023-06-14T12:53:26;16.83;;;15.70;;
2674;SDS011;1347;42.122;24.746;2023-06-14T12:55:53;16.73;;;15.43;;
2674;SDS011;1347;42.122;24.746;2023-06-14T12:58:21;16.37;;;14.93;;
2674;SDS011;1347;42.122;24.746;2023-06-14T13:00:48;16.73;;;15.23;;
2674;SDS011;1347;42.122;24.746;2023-06-14T13:03:16;16.83;;;15.27;;
2674;SDS011;1347;42.122;24.746;2023-06-14T13:05:42;15.70;;;14.40;;
2674;SDS011;1347;42.122;24.746;2023-06-14T13:08:10;18.87;;;15.50;;
2674;SDS011;1347;42.122;24.746;2023-06-14T13:10:37;16.40;;;15.23;;
2674;SDS011;1347;42.122;24.746;2023-06-14T13:13:03;16.93;;;15.67;;
2674;SDS011;1347;42.122;24.746;2023-06-14T13:15:34;17.40;;;15.70;;
2674;SDS011;1347;42.122;24.746;2023-06-14T13:18:01;17.63;;;16.20;;
2674;SDS011;1347;42.122;24.746;2023-06-14T13:20:28;15.13;;;14.03;;
2674;SDS011;1347;42.122;24.746;2023-06-14T13:22:55;14.90;;;13.90;;
2674;SDS011;1347;42.122;24.746;2023-06-14T13:25:21;15.60;;;14.50;;
2674;SDS011;1347;42.122;24.746;2023-06-14T13:27:48;15.60;;;14.10;;
2674;SDS011;1347;42.122;24.746;2023-06-14T13:30:15;16.03;;;14.60;;
2674;SDS011;1347;42.122;24.746;2023-06-14T13:32:44;15.70;;;14.47;;
2674;SDS011;1347;42.122;24.746;2023-06-14T13:35:11;17.07;;;15.40;;
2674;SDS011;1347;42.122;24.746;2023-06-14T13:37:37;16.70;;;15.50;;
2674;SDS011;1347;42.122;24.746;2023-06-14T13:40:05;17.67;;;16.30;;
2674;SDS011;1347;42.122;24.746;2023-06-14T13:42:33;17.07;;;15.50;;
2674;SDS011;1347;42.122;24.746;2023-06-14T13:45:00;16.37;;;14.97;;
2674;SDS011;1347;42.122;24.746;2023-06-14T13:47:28;16.03;;;14.33;;
2674;SDS011;1347;42.122;24.746;2023-06-14T13:49:56;15.87;;;14.40;;
2674;SDS011;1347;42.122;24.746;2023-06-14T13:52:23;16.10;;;14.60;;
2674;SDS011;1347;42.122;24.746;2023-06-14T13:54:50;16.40;;;15.00;;
2674;SDS011;1347;42.122;24.746;2023-06-14T13:57:17;16.07;;;14.83;;
2674;SDS011;1347;42.122;24.746;2023-06-14T13:59:44;15.70;;;14.10;;
2674;SDS011;1347;42.122;24.746;2023-06-14T14:02:11;15.40;;;14.20;;
2674;SDS011;1347;42.122;24.746;2023-06-14T14:04:38;16.30;;;13.83;;
2674;SDS011;1347;42.122;24.746;2023-06-14T14:07:07;15.07;;;13.77;;
2674;SDS011;1347;42.122;24.746;2023-06-14T14:09:34;13.13;;;12.00;;
2674;SDS011;1347;42.122;24.746;2023-06-14T14:12:02;12.73;;;11.60;;
2674;SDS011;1347;42.122;24.746;2023-06-14T14:14:30;12.53;;;11.30;;
2674;SDS011;1347;42.122;24.746;2023-06-14T14:16:58;12.00;;;11.00;;
2674;SDS011;1347;42.122;24.746;2023-06-14T14:19:25;12.00;;;10.90;;
2674;SDS011;1347;42.122;24.746;2023-06-14T14:21:52;12.20;;;11.10;;
2674;SDS011;1347;42.122;24.746;2023-06-14T14:24:21;11.50;;;10.50;;
2674;SDS011;1347;42.122;24.746;2023-06-14T14:26:48;9.83;;;9.03;;
2674;SDS011;1347;42.122;24.746;2023-06-14T14:29:16;10.57;;;9.70;;
2674;SDS011;1347;42.122;24.746;2023-06-14T14:31:42;11.30;;;9.97;;
2674;SDS011;1347;42.122;24.746;2023-06-14T14:34:09;11.37;;;10.27;;
2674;SDS011;1347;42.122;24.746;2023-06-14T14:36:39;10.63;;;9.63;;
2674;SDS011;1347;42.122;24.746;2023-06-14T14:39:07;9.27;;;8.60;;
2674;SDS011;1347;42.122;24.746;2023-06-14T14:41:36;9.03;;;8.23;;
2674;SDS011;1347;42.122;24.746;2023-06-14T14:44:03;12.33;;;8.40;;
2674;SDS011;1347;42.122;24.746;2023-06-14T14:46:31;9.23;;;8.53;;
2674;SDS011;1347;42.122;24.746;2023-06-14T14:49:04;9.37;;;8.57;;
2674;SDS011;1347;42.122;24.746;2023-06-14T14:51:40;9.30;;;8.50;;
2674;SDS011;1347;42.122;24.746;2023-06-14T14:54:08;9.23;;;8.40;;
2674;SDS011;1347;42.122;24.746;2023-06-14T14:56:40;9.63;;;8.83;;
2674;SDS011;1347;42.122;24.746;2023-06-14T14:59:07;9.37;;;8.57;;
2674;SDS011;1347;42.122;24.746;2023-06-14T15:01:34;10.27;;;9.23;;
2674;SDS011;1347;42.122;24.746;2023-06-14T15:04:01;8.40;;;7.80;;
2674;SDS011;1347;42.122;24.746;2023-06-14T15:06:28;8.57;;;7.87;;
2674;SDS011;1347;42.122;24.746;2023-06-14T15:08:55;10.40;;;8.90;;
2674;SDS011;1347;42.122;24.746;2023-06-14T15:11:22;9.13;;;8.33;;
2674;SDS011;1347;42.122;24.746;2023-06-14T15:13:50;9.33;;;8.63;;
2674;SDS011;1347;42.122;24.746;2023-06-14T15:16:17;10.20;;;8.60;;
2674;SDS011;1347;42.122;24.746;2023-06-14T15:18:44;10.70;;;8.33;;